aviador You're here:

FMMI Decoded Metar

ANTANANARIVO in MADAGASCAR
Report Time2017-11-22 23:00:00
UTC Time2017-11-22 23:40:35
Flight Rules mvfr MVFR
Wind140° at 01 kt
W.Decomp.*RWY 11: 0.7 kt HW 0.7 kt RCW
W.Rank140° ranks 6
Current wind is below 140° avg. (6.7)
Visibility9999 m
Phenomena:N/A
Clouds:Few 010 Hf
Broken 020 Hf
Expected CloudBase > 800 ft AGL from Temp-Dew spread
Ceiling2,000 ft
Temp17°C (ISA +10)
Dew Point15°C (88% RH)
QNH1018 hPa
Density Alt5,466 ft
Elevation4,186 ft
Report Wrong Elevation
Raw Report
METAR FMMI 222300Z 14001KT 9999 FEW010 BKN020 17/15 Q1018 NOSIG=

Extra information for FMMI:More info

Metar Taf Metar & Taf Last 4 Metars F.Rules Stats Wind Profile Meteogram Temp Stats Airport Information Weather charts Add Link Nearby VenuesMetar ALERT Operation Metar Decoded Social comments